Time;durP1;ratioP1;P1;durP2;ratioP2;P2;SDS_P1;SDS_P2;PMS_P1;PMS_P2;Temp;Humidity;BMP_temperature;BMP_pressure;BME280_temperature;BME280_humidity;BME280_pressure;Samples;Min_cycle;Max_cycle;Signal;HPM_P1;HPM_P2
2022/10/23 00:01:20;;;;;;;;;3.67;3.67;;;;;18.54;100.00;100774.06;5056036;28;45536;-76
2022/10/23 00:03:46;;;;;;;;;3.00;3.00;;;;;18.55;100.00;100778.50;5056152;28;45422;-77
2022/10/23 00:06:13;;;;;;;;;6.33;5.33;;;;;18.55;100.00;100773.16;5056636;28;47426;-77
2022/10/23 00:08:39;;;;;;;;;4.00;4.00;;;;;18.54;100.00;100758.91;5056517;28;45350;-76
2022/10/23 00:11:13;;;;;;;;;7.00;4.00;;;;;18.54;100.00;100755.34;5038387;28;45435;-75
2022/10/23 00:13:38;;;;;;;;;2.33;2.33;;;;;18.53;100.00;100757.13;5056610;28;45401;-76
2022/10/23 00:16:04;;;;;;;;;4.33;3.33;;;;;18.53;100.00;100753.56;5056025;28;45453;-77
2022/10/23 00:18:29;;;;;;;;;5.67;4.00;;;;;18.52;100.00;100746.47;5056769;28;45193;-75
2022/10/23 00:20:55;;;;;;;;;4.00;4.00;;;;;18.52;100.00;100744.66;5056104;28;53383;-76
2022/10/23 00:23:21;;;;;;;;;4.67;3.33;;;;;18.51;100.00;100739.38;5056526;28;45362;-76
2022/10/23 00:25:46;;;;;;;;;3.00;3.00;;;;;18.51;100.00;100740.25;5056237;28;46253;-76
2022/10/23 00:28:12;;;;;;;;;7.67;5.67;;;;;18.50;100.00;100737.63;5056341;28;45655;-77
2022/10/23 00:30:37;;;;;;;;;5.00;5.00;;;;;18.50;100.00;100734.94;5059220;28;45535;-76
2022/10/23 00:33:02;;;;;;;;;6.00;6.00;;;;;18.49;100.00;100738.53;5054739;28;45585;-76
2022/10/23 00:35:28;;;;;;;;;5.67;4.33;;;;;18.50;100.00;100737.63;5055495;28;49597;-76
2022/10/23 00:37:53;;;;;;;;;5.00;4.00;;;;;18.50;100.00;100734.94;5056492;28;45371;-76
2022/10/23 00:40:19;;;;;;;;;3.67;3.67;;;;;18.47;100.00;100726.97;5056194;28;45462;-76
2022/10/23 00:42:44;;;;;;;;;8.33;6.00;;;;;18.47;100.00;100726.97;5055623;28;52951;-76
2022/10/23 00:45:26;;;;;;;;;3.00;3.00;;;;;18.47;100.00;100738.56;5055729;28;51469;-75
2022/10/23 00:47:52;;;;;;;;;8.00;5.00;;;;;18.44;100.00;100713.69;5049726;28;45440;-76
2022/10/23 00:50:18;;;;;;;;;5.33;4.33;;;;;18.46;100.00;100715.41;5055943;28;45386;-76
2022/10/23 00:52:47;;;;;;;;;3.00;3.00;;;;;18.45;100.00;100710.97;5038317;28;45658;-78
2022/10/23 00:55:13;;;;;;;;;3.33;3.33;;;;;18.46;100.00;100720.75;5055738;28;45820;-76
2022/10/23 00:57:41;;;;;;;;;6.33;4.00;;;;;18.45;100.00;100707.44;5055577;28;45604;-76
2022/10/23 01:00:07;;;;;;;;;6.33;4.00;;;;;18.44;100.00;100700.34;5056032;28;45217;-77
2022/10/23 01:02:33;;;;;;;;;3.00;3.00;;;;;18.46;100.00;100687.78;5055298;28;45591;-78
2022/10/23 01:04:58;;;;;;;;;5.00;3.00;;;;;18.45;100.00;100684.25;5039439;28;62054;-75
2022/10/23 01:07:55;;;;;;;;;4.00;4.00;;;;;18.45;100.00;100664.66;5059692;28;50588;-76
2022/10/23 01:10:38;;;;;;;;;4.67;4.67;;;;;18.47;100.00;100684.19;5059585;28;45448;-77
2022/10/23 01:13:07;;;;;;;;;2.67;2.67;;;;;18.47;100.00;100686.88;5059567;28;45415;-76
2022/10/23 01:15:39;;;;;;;;;3.00;3.00;;;;;18.47;100.00;100678.84;5059354;28;46406;-76
2022/10/23 01:18:07;;;;;;;;;5.33;5.00;;;;;18.46;100.00;100663.72;5058900;28;45490;-76
2022/10/23 01:20:44;;;;;;;;;7.67;4.00;;;;;18.47;100.00;100660.13;5059308;28;45272;-76
2022/10/23 01:23:47;;;;;;;;;3.00;3.00;;;;;18.46;100.00;100659.25;5041589;28;45555;-76
2022/10/23 01:26:18;;;;;;;;;3.00;2.67;;;;;18.44;100.00;100647.72;5058892;28;45931;-76
2022/10/23 01:28:44;;;;;;;;;4.33;4.33;;;;;18.44;100.00;100650.41;5058904;28;45550;-76
2022/10/23 01:31:14;;;;;;;;;4.00;4.00;;;;;18.41;100.00;100642.44;5058903;28;45507;-76
2022/10/23 01:33:43;;;;;;;;;4.33;4.00;;;;;18.42;100.00;100632.63;5058713;28;45534;-76
2022/10/23 01:36:14;;;;;;;;;6.00;6.00;;;;;18.41;100.00;100625.53;5058640;28;46611;-78
2022/10/23 01:38:48;;;;;;;;;6.33;5.00;;;;;18.39;100.00;100630.94;5041287;28;45451;-76
2022/10/23 01:41:17;;;;;;;;;5.00;5.00;;;;;18.39;100.00;100643.41;5059009;28;45341;-75
2022/10/23 01:43:51;;;;;;;;;6.00;6.00;;;;;18.36;100.00;100630.13;5058987;28;45443;-76
2022/10/23 01:46:17;;;;;;;;;8.00;4.67;;;;;18.37;100.00;100639.88;5058693;28;47724;-76
2022/10/23 01:48:46;;;;;;;;;5.00;4.00;;;;;18.35;100.00;100639.06;5040698;28;45475;-76
2022/10/23 01:51:13;;;;;;;;;5.33;4.00;;;;;18.35;100.00;100641.72;5058892;28;45589;-76
2022/10/23 01:53:40;;;;;;;;;5.33;4.00;;;;;18.34;100.00;100622.13;5059145;28;45432;-76
2022/10/23 01:56:11;;;;;;;;;2.00;2.00;;;;;18.33;100.00;100623.94;5058481;28;46509;-75
2022/10/23 01:58:38;;;;;;;;;2.00;2.00;;;;;18.33;100.00;100626.59;5054741;28;45289;-76
2022/10/23 02:01:05;;;;;;;;;5.00;2.00;;;;;18.32;100.00;100616.84;5040531;28;45236;-77
2022/10/23 02:03:32;;;;;;;;;4.00;2.00;;;;;18.33;100.00;100610.56;5058736;28;45567;-76
2022/10/23 02:05:57;;;;;;;;;5.33;3.00;;;;;18.36;100.00;100600.72;5058473;28;46588;-76
2022/10/23 02:08:24;;;;;;;;;3.00;1.33;;;;;18.36;100.00;100600.72;5040033;28;56890;-76
2022/10/23 02:11:08;;;;;;;;;4.00;2.00;;;;;18.37;100.00;100597.13;5050968;28;45458;-75
2022/10/23 02:13:58;;;;;;;;;4.00;2.33;;;;;18.36;100.00;100590.88;5040435;28;45629;-75
2022/10/23 02:16:33;;;;;;;;;2.33;2.33;;;;;18.37;100.00;100592.63;5039467;28;46860;-76
2022/10/23 02:19:10;;;;;;;;;4.33;2.00;;;;;18.38;100.00;100593.53;5050832;28;45343;-75
2022/10/23 02:21:35;;;;;;;;;3.00;3.00;;;;;18.40;100.00;100589.03;5058400;28;45386;-76
2022/10/23 02:24:13;;;;;;;;;2.67;2.33;;;;;18.41;100.00;100588.09;5058627;28;45277;-76
2022/10/23 02:26:42;;;;;;;;;2.00;2.00;;;;;18.40;100.00;100583.69;5057801;28;45304;-76
2022/10/23 02:29:19;;;;;;;;;2.00;2.00;;;;;18.43;100.00;100575.56;5050813;28;45516;-76
2022/10/23 02:31:44;;;;;;;;;2.00;2.00;;;;;18.45;100.00;100563.06;5056613;28;45482;-75
2022/10/23 02:34:10;;;;;;;;;4.00;3.00;;;;;18.45;100.00;100558.59;5057506;28;61716;-76
2022/10/23 02:36:36;;;;;;;;;3.00;3.00;;;;;18.47;100.00;100556.75;5058065;28;50163;-76
2022/10/23 02:39:01;;;;;;;;;2.33;1.33;;;;;18.48;100.00;100549.59;5057904;28;45360;-76
2022/10/23 02:41:32;;;;;;;;;2.33;2.33;;;;;18.50;100.00;100548.66;5057811;28;45507;-76
2022/10/23 02:43:58;;;;;;;;;3.00;1.67;;;;;18.52;100.00;100543.25;5057719;28;45388;-76
2022/10/23 02:46:35;;;;;;;;;4.00;3.00;;;;;18.52;100.00;100548.59;5057541;28;46042;-76
2022/10/23 02:49:10;;;;;;;;;2.00;2.00;;;;;18.55;100.00;100540.50;5057905;28;47216;-77
2022/10/23 02:52:01;;;;;;;;;1.67;1.00;;;;;18.55;100.00;100544.06;5040383;28;45406;-76
2022/10/23 02:54:41;;;;;;;;;4.00;2.33;;;;;18.57;100.00;100546.69;5039963;28;45403;-77
2022/10/23 02:57:17;;;;;;;;;2.33;2.33;;;;;18.58;100.00;100532.38;5057410;28;47327;-75
2022/10/23 03:00:16;;;;;;;;;1.00;1.00;;;;;18.59;100.00;100535.03;5040000;28;45542;-76
2022/10/23 03:03:09;;;;;;;;;2.33;2.33;;;;;18.57;100.00;100523.50;5056063;28;46574;-76
2022/10/23 03:05:37;;;;;;;;;3.00;3.00;;;;;18.60;100.00;100511.84;5039781;28;45432;-76
2022/10/23 03:08:04;;;;;;;;;1.33;1.33;;;;;18.58;100.00;100505.66;5057809;28;46248;-76
2022/10/23 03:10:30;;;;;;;;;1.33;1.33;;;;;18.60;100.00;100506.50;5057235;28;45360;-77
2022/10/23 03:12:55;;;;;;;;;2.00;2.00;;;;;18.59;100.00;100500.28;5057212;28;59505;-76
2022/10/23 03:15:21;;;;;;;;;2.67;1.33;;;;;18.61;100.00;100494.88;5038989;28;45605;-76
2022/10/23 03:17:46;;;;;;;;;2.33;2.33;;;;;18.60;100.00;100490.47;5057740;28;46345;-76
2022/10/23 03:20:11;;;;;;;;;3.00;3.00;;;;;18.62;100.00;100490.41;5057493;28;45340;-76
2022/10/23 03:22:37;;;;;;;;;3.33;1.33;;;;;18.62;100.00;100496.63;5057140;28;45502;-78
2022/10/23 03:25:03;;;;;;;;;3.67;3.67;;;;;18.62;100.00;100498.44;5057732;28;45577;-76
2022/10/23 03:27:29;;;;;;;;;3.33;1.33;;;;;18.63;100.00;100490.34;5038787;28;47706;-76
2022/10/23 03:29:54;;;;;;;;;3.33;3.33;;;;;18.61;100.00;100478.84;5057213;28;45296;-77
2022/10/23 03:32:19;;;;;;;;;3.33;2.00;;;;;18.65;100.00;100487.66;5054881;28;45733;-76
2022/10/23 03:34:45;;;;;;;;;1.33;1.33;;;;;18.66;100.00;100484.94;5057112;28;45376;-76
2022/10/23 03:37:10;;;;;;;;;3.33;3.00;;;;;18.66;100.00;100476.91;5056935;28;49122;-76
2022/10/23 03:39:35;;;;;;;;;2.67;2.33;;;;;18.69;100.00;100471.50;5056903;28;50951;-76
2022/10/23 03:42:01;;;;;;;;;3.33;2.00;;;;;18.67;100.00;100478.66;5057156;28;45475;-76
2022/10/23 03:44:26;;;;;;;;;4.00;2.00;;;;;18.68;100.00;100480.44;5056917;28;45435;-76
2022/10/23 03:46:51;;;;;;;;;3.00;3.00;;;;;18.68;100.00;100480.44;5056441;28;46507;-76
2022/10/23 03:49:17;;;;;;;;;1.33;1.33;;;;;18.68;100.00;100487.59;5056464;28;45463;-76
2022/10/23 03:51:43;;;;;;;;;3.33;3.33;;;;;18.68;100.00;100483.13;5057504;28;45462;-76
2022/10/23 03:54:09;;;;;;;;;2.33;2.33;;;;;18.69;100.00;100482.19;5057218;28;45292;-76
2022/10/23 03:56:35;;;;;;;;;4.33;2.00;;;;;18.69;100.00;100481.31;5056899;28;46715;-76
2022/10/23 03:59:00;;;;;;;;;4.67;3.00;;;;;18.70;100.00;100473.28;5056208;28;46576;-76
2022/10/23 04:01:26;;;;;;;;;6.00;3.00;;;;;18.70;100.00;100473.28;5056401;28;53618;-75
2022/10/23 04:03:51;;;;;;;;;3.33;3.00;;;;;18.71;100.00;100468.81;5056490;28;45229;-77
2022/10/23 04:06:16;;;;;;;;;2.33;2.33;;;;;18.72;100.00;100481.25;5038509;28;51796;-76
2022/10/23 04:08:43;;;;;;;;;3.33;2.00;;;;;18.75;100.00;100486.50;5056915;28;45444;-75
2022/10/23 04:11:09;;;;;;;;;3.67;3.00;;;;;18.74;100.00;100476.72;5056573;28;45378;-76
2022/10/23 04:13:34;;;;;;;;;1.33;1.33;;;;;18.76;100.00;100480.25;5057135;28;45689;-76
2022/10/23 04:16:00;;;;;;;;;2.33;2.00;;;;;18.76;100.00;100478.44;5055865;28;58840;-76
2022/10/23 04:18:25;;;;;;;;;4.00;3.00;;;;;18.75;100.00;100465.09;5055873;28;56010;-75
2022/10/23 04:20:50;;;;;;;;;3.00;3.00;;;;;18.76;100.00;100469.56;5056453;28;46784;-76
2022/10/23 04:23:16;;;;;;;;;3.00;3.00;;;;;18.77;100.00;100469.50;5056082;28;45519;-77
2022/10/23 04:25:42;;;;;;;;;4.00;2.33;;;;;18.76;100.00;100472.22;5038473;28;46667;-75
2022/10/23 04:28:07;;;;;;;;;4.67;2.33;;;;;18.77;100.00;100465.94;5056298;28;45351;-76
2022/10/23 04:30:33;;;;;;;;;4.00;3.33;;;;;18.75;100.00;100478.47;5055659;28;52054;-77
2022/10/23 04:32:58;;;;;;;;;4.00;2.00;;;;;18.76;100.00;100483.78;5056511;28;45501;-76
2022/10/23 04:35:23;;;;;;;;;2.33;2.00;;;;;18.77;100.00;100480.19;5055118;28;62037;-76
2022/10/23 04:37:49;;;;;;;;;3.00;2.00;;;;;18.78;100.00;100478.41;5056268;28;48330;-76
2022/10/23 04:40:14;;;;;;;;;3.00;1.33;;;;;18.76;100.00;100470.44;5055964;28;45457;-76
2022/10/23 04:42:40;;;;;;;;;2.33;2.33;;;;;18.77;100.00;100455.25;5055942;28;45252;-76
2022/10/23 04:45:05;;;;;;;;;3.33;2.67;;;;;18.73;100.00;100451.78;5037504;28;53512;-76
2022/10/23 04:47:31;;;;;;;;;4.00;3.33;;;;;18.74;100.00;100448.16;5055934;28;45713;-76
2022/10/23 04:49:56;;;;;;;;;3.33;3.33;;;;;18.72;100.00;100436.66;5056097;28;45189;-77
2022/10/23 04:52:21;;;;;;;;;3.00;2.33;;;;;18.71;100.00;100458.97;5055863;28;45573;-76
2022/10/23 04:54:47;;;;;;;;;6.00;4.00;;;;;18.70;100.00;100497.34;5037481;28;48320;-76
2022/10/23 04:57:12;;;;;;;;;3.00;3.00;;;;;18.67;100.00;100515.22;5056122;28;45279;-76
2022/10/23 04:59:38;;;;;;;;;4.00;3.00;;;;;18.67;100.00;100526.81;5055916;28;45477;-76
2022/10/23 05:02:03;;;;;;;;;3.67;2.00;;;;;18.63;100.00;100508.19;5056164;28;45558;-77
2022/10/23 05:04:29;;;;;;;;;3.67;2.67;;;;;18.63;100.00;100498.38;5055963;28;45561;-75
2022/10/23 05:06:54;;;;;;;;;5.67;3.00;;;;;18.59;100.00;100480.69;5055301;28;45459;-75
2022/10/23 05:09:21;;;;;;;;;6.00;5.00;;;;;18.59;100.00;100453.94;5038324;28;45486;-76
2022/10/23 05:11:46;;;;;;;;;6.67;4.00;;;;;18.57;100.00;100461.13;5056052;28;45509;-76
2022/10/23 05:14:12;;;;;;;;;4.00;2.00;;;;;18.57;100.00;100469.13;5055588;28;46454;-76
2022/10/23 05:16:54;;;;;;;;;2.33;2.33;;;;;18.59;100.00;100467.31;5055872;28;45324;-76
2022/10/23 05:19:23;;;;;;;;;3.67;3.67;;;;;18.57;100.00;100471.81;5030703;28;45293;-77
2022/10/23 05:21:54;;;;;;;;;2.67;2.33;;;;;18.59;100.00;100464.66;5055816;28;45537;-76
2022/10/23 05:24:21;;;;;;;;;3.67;2.00;;;;;18.60;100.00;100461.03;5055681;28;46532;-76
2022/10/23 05:26:46;;;;;;;;;5.00;4.00;;;;;18.61;100.00;100460.13;5055712;28;45583;-76
2022/10/23 05:29:12;;;;;;;;;2.00;2.00;;;;;18.59;100.00;100443.25;5144988;22;45233;-75
2022/10/23 05:31:38;;;;;;;;;4.67;3.33;;;;;18.58;100.00;100439.66;5059841;28;45393;-76
2022/10/23 05:34:04;;;;;;;;;4.33;4.33;;;;;18.58;100.00;100439.66;5054530;28;53372;-76
2022/10/23 05:36:29;;;;;;;;;2.33;2.33;;;;;18.57;100.00;100427.22;5054518;28;68487;-77
2022/10/23 05:38:55;;;;;;;;;5.67;3.33;;;;;18.57;100.00;100413.88;5054706;28;49911;-76
2022/10/23 05:41:20;;;;;;;;;3.33;3.33;;;;;18.58;100.00;100414.72;5037831;28;45459;-76
2022/10/23 05:43:46;;;;;;;;;3.67;3.33;;;;;18.59;100.00;100411.16;5054208;28;61524;-76
2022/10/23 05:46:11;;;;;;;;;4.67;3.00;;;;;18.57;100.00;100415.66;5046822;28;55447;-77
2022/10/23 05:48:37;;;;;;;;;5.67;4.67;;;;;18.56;100.00;100400.53;5055304;28;45417;-76
2022/10/23 05:51:07;;;;;;;;;2.33;2.33;;;;;18.56;100.00;100393.41;5037400;28;53797;-76
2022/10/23 05:53:33;;;;;;;;;4.00;4.00;;;;;18.51;100.00;100398.00;5058698;28;45336;-76
2022/10/23 05:56:08;;;;;;;;;3.00;3.00;;;;;18.52;100.00;100401.53;5040544;28;45369;-76
2022/10/23 05:58:34;;;;;;;;;5.67;4.00;;;;;18.48;100.00;100394.53;5058752;28;45337;-76
2022/10/23 06:00:59;;;;;;;;;4.67;3.00;;;;;18.47;100.00;100390.09;5040869;28;45236;-76
2022/10/23 06:03:24;;;;;;;;;3.67;3.67;;;;;18.46;100.00;100402.59;5040283;28;45843;-76
2022/10/23 06:05:50;;;;;;;;;4.33;4.00;;;;;18.43;100.00;100385.75;5058450;28;51251;-76
2022/10/23 06:08:16;;;;;;;;;6.67;4.33;;;;;18.46;100.00;100394.56;5058432;28;45328;-76
2022/10/23 06:10:41;;;;;;;;;5.67;4.00;;;;;18.45;100.00;100399.97;5058922;28;45550;-76
2022/10/23 06:13:07;;;;;;;;;7.00;4.00;;;;;18.46;100.00;100397.25;5058165;28;61252;-77
2022/10/23 06:15:32;;;;;;;;;4.00;4.00;;;;;18.48;100.00;100397.19;5057863;28;56266;-76
2022/10/23 06:18:02;;;;;;;;;4.00;4.00;;;;;18.47;100.00;100396.31;5040491;28;45338;-76
2022/10/23 06:20:27;;;;;;;;;7.33;5.67;;;;;18.46;100.00;100391.03;5058376;28;45223;-76
2022/10/23 06:22:53;;;;;;;;;6.00;3.67;;;;;18.42;100.00;100387.56;5057707;28;55222;-76
2022/10/23 06:25:18;;;;;;;;;7.67;5.67;;;;;18.43;100.00;100385.75;5058296;28;45284;-76
2022/10/23 06:27:43;;;;;;;;;7.00;5.00;;;;;18.42;100.00;100397.38;5058070;28;45506;-76
2022/10/23 06:30:09;;;;;;;;;4.67;3.33;;;;;18.45;100.00;100400.84;5058057;28;47293;-76
2022/10/23 06:32:35;;;;;;;;;4.00;4.00;;;;;18.44;100.00;100380.38;5054682;28;46286;-75
2022/10/23 06:35:00;;;;;;;;;3.33;3.33;;;;;18.47;100.00;100387.44;5058456;28;45495;-76
2022/10/23 06:37:25;;;;;;;;;4.67;3.67;;;;;18.44;100.00;100377.72;5057890;28;54974;-76
2022/10/23 06:39:51;;;;;;;;;6.00;3.33;;;;;18.46;100.00;100373.19;5058319;28;54326;-76
2022/10/23 06:42:16;;;;;;;;;6.00;4.67;;;;;18.48;100.00;100382.06;5055931;28;46331;-78
2022/10/23 06:44:41;;;;;;;;;7.67;4.67;;;;;18.44;100.00;100380.38;5039061;28;49144;-76
2022/10/23 06:47:09;;;;;;;;;4.67;4.33;;;;;18.43;100.00;100378.63;5058382;28;45493;-77
2022/10/23 06:49:34;;;;;;;;;5.67;4.33;;;;;18.43;100.00;100388.44;5058328;28;45217;-76
2022/10/23 06:52:00;;;;;;;;;5.00;3.67;;;;;18.42;100.00;100381.34;5057902;28;46515;-76
2022/10/23 06:54:25;;;;;;;;;4.00;4.00;;;;;18.41;100.00;100374.25;5057968;28;45300;-76
2022/10/23 06:56:50;;;;;;;;;5.00;5.00;;;;;18.42;100.00;100376.88;5039735;28;45458;-76
2022/10/23 06:59:16;;;;;;;;;8.33;4.00;;;;;18.42;100.00;100367.97;5057686;28;45617;-76
2022/10/23 07:01:41;;;;;;;;;4.33;3.33;;;;;18.43;100.00;100356.34;5057503;28;46459;-76
2022/10/23 07:04:07;;;;;;;;;6.33;4.33;;;;;18.42;100.00;100355.47;5057311;28;45342;-76
2022/10/23 07:06:32;;;;;;;;;7.00;5.00;;;;;18.48;100.00;100358.00;5040026;28;45426;-76
2022/10/23 07:08:58;;;;;;;;;3.00;3.00;;;;;18.48;100.00;100360.66;5057549;28;45225;-76
2022/10/23 07:11:23;;;;;;;;;7.33;5.67;;;;;18.51;100.00;100360.56;5057755;28;45849;-76
2022/10/23 07:13:49;;;;;;;;;6.67;3.67;;;;;18.51;100.00;100349.00;5057167;28;45176;-76
2022/10/23 07:16:17;;;;;;;;;3.33;3.33;;;;;18.53;100.00;100337.31;5057100;28;45390;-76
2022/10/23 07:18:43;;;;;;;;;6.00;5.00;;;;;18.55;100.00;100351.53;5057475;28;45498;-76
2022/10/23 07:21:08;;;;;;;;;6.33;4.67;;;;;18.54;100.00;100352.47;5056659;28;46542;-77
2022/10/23 07:23:34;;;;;;;;;5.67;4.33;;;;;18.59;100.00;100353.22;5057199;28;45353;-76
2022/10/23 07:26:07;;;;;;;;;6.33;3.67;;;;;18.59;100.00;100339.84;5038991;28;45475;-77
2022/10/23 07:28:33;;;;;;;;;4.33;4.33;;;;;18.63;100.00;100331.72;5054871;28;45477;-76
2022/10/23 07:30:59;;;;;;;;;5.00;5.00;;;;;18.66;100.00;100339.66;5053995;28;46299;-77
2022/10/23 07:33:24;;;;;;;;;4.33;4.33;;;;;18.67;100.00;100354.78;5020485;28;45523;-76
2022/10/23 07:35:50;;;;;;;;;6.00;5.00;;;;;18.67;100.00;100342.28;5056796;28;45477;-77
2022/10/23 07:38:16;;;;;;;;;5.33;4.00;;;;;18.70;100.00;100338.69;5057087;28;45575;-77
2022/10/23 07:40:42;;;;;;;;;4.00;4.00;;;;;18.70;100.00;100336.88;5057077;28;47130;-78
2022/10/23 07:43:07;;;;;;;;;6.00;6.00;;;;;18.72;100.00;100331.47;5055406;28;45549;-78
2022/10/23 07:45:32;;;;;;;;;4.00;4.00;;;;;18.74;100.00;100334.97;5055801;28;45432;-76
2022/10/23 07:47:58;;;;;;;;;8.00;6.33;;;;;18.74;100.00;100341.19;5038450;28;45634;-77
2022/10/23 07:50:23;;;;;;;;;7.00;6.00;;;;;18.80;100.00;100341.03;5055284;28;46343;-78
2022/10/23 07:52:48;;;;;;;;;6.00;4.67;;;;;18.83;100.00;100334.69;5054948;28;57949;-78
2022/10/23 07:55:14;;;;;;;;;5.67;4.33;;;;;18.87;100.00;100319.44;5055304;28;52453;-77
2022/10/23 07:57:39;;;;;;;;;6.00;5.00;;;;;18.92;100.00;100321.03;5053937;28;45496;-76
2022/10/23 08:00:05;;;;;;;;;7.00;6.00;;;;;18.95;100.00;100328.94;5056988;28;45602;-77
2022/10/23 08:02:31;;;;;;;;;4.00;4.00;;;;;18.96;100.00;100328.06;5058487;28;45534;-79
2022/10/23 08:04:56;;;;;;;;;4.67;4.67;;;;;19.01;100.00;100319.84;5055736;28;45444;-77
2022/10/23 08:07:21;;;;;;;;;7.00;5.00;;;;;19.04;100.00;100328.66;5054740;28;51765;-77
2022/10/23 08:09:47;;;;;;;;;5.00;4.00;;;;;19.06;100.00;100321.44;5053604;28;60687;-77
2022/10/23 08:12:12;;;;;;;;;4.33;4.33;;;;;19.08;100.00;100324.09;5055547;28;45502;-79
2022/10/23 08:14:38;;;;;;;;;4.00;4.00;;;;;19.11;100.00;100321.31;5051488;28;45482;-81
2022/10/23 08:17:03;;;;;;;;;6.67;5.00;;;;;19.13;100.00;100313.25;5043639;28;45569;-79
2022/10/23 08:19:29;;;;;;;;;5.67;4.00;;;;;19.17;100.00;100322.91;5054157;28;46229;-80
2022/10/23 08:21:56;;;;;;;;;3.33;3.33;;;;;19.18;100.00;100312.19;5041632;28;46110;-81
2022/10/23 08:24:21;;;;;;;;;5.00;3.67;;;;;19.24;100.00;100311.09;5018447;28;45642;-79
2022/10/23 08:26:48;;;;;;;;;9.00;5.00;;;;;19.29;100.00;100311.81;5043213;28;45646;-80
2022/10/23 08:29:14;;;;;;;;;3.67;3.67;;;;;19.31;100.00;100316.19;5027180;28;47577;-80
2022/10/23 08:31:39;;;;;;;;;4.33;4.33;;;;;19.34;100.00;100299.16;5043982;28;45876;-80
2022/10/23 08:34:04;;;;;;;;;4.33;4.00;;;;;19.33;100.00;100292.94;5044765;28;45533;-76
2022/10/23 08:36:30;;;;;;;;;7.33;5.33;;;;;19.36;100.00;100295.50;5046010;28;46192;-76
2022/10/23 08:38:57;;;;;;;;;6.00;5.00;;;;;19.40;100.00;100298.06;5045482;28;46763;-78
2022/10/23 08:41:30;;;;;;;;;5.67;5.00;;;;;19.46;100.00;100295.19;5044902;28;45617;-79
2022/10/23 08:44:34;;;;;;;;;4.00;4.00;;;;;19.48;100.00;100301.34;5046034;28;45510;-80
2022/10/23 08:47:09;;;;;;;;;4.00;4.00;;;;;19.51;100.00;100310.16;5045724;28;45565;-80
2022/10/23 08:49:58;;;;;;;;;7.67;6.00;;;;;19.52;100.00;100313.72;5026295;28;46695;-76
2022/10/23 08:53:01;;;;;;;;;3.67;3.67;;;;;19.56;100.00;100315.38;5046034;28;45582;-78
2022/10/23 08:55:31;;;;;;;;;5.00;4.33;;;;;19.59;100.00;100315.28;5043627;28;45601;-80
2022/10/23 08:58:06;;;;;;;;;4.33;3.00;;;;;19.66;100.00;100316.84;5042652;28;45699;-80
2022/10/23 09:00:32;;;;;;;;;4.00;4.00;;;;;19.70;100.00;100299.72;5026624;28;46549;-82
2022/10/23 09:03:01;;;;;;;;;4.00;4.00;;;;;19.77;100.00;100308.44;5045931;28;45503;-81
2022/10/23 09:05:31;;;;;;;;;5.00;4.33;;;;;19.82;100.00;100293.06;5027251;28;45415;-79
2022/10/23 09:08:11;;;;;;;;;3.67;3.67;;;;;19.91;100.00;100300.75;5044493;28;45672;-83
2022/10/23 09:10:55;;;;;;;;;4.00;4.00;;;;;19.97;100.00;100307.69;5028659;28;47713;-78
2022/10/23 09:13:44;;;;;;;;;1.67;1.67;;;;;19.99;100.00;100320.13;5047477;28;45614;-78
2022/10/23 09:16:16;;;;;;;;;5.00;3.33;;;;;20.01;100.00;100317.38;5047404;28;45572;-77
2022/10/23 09:18:41;;;;;;;;;7.00;4.00;;;;;19.99;100.00;100314.75;5044593;28;45573;-78
2022/10/23 09:21:10;;;;;;;;;4.00;1.00;;;;;20.00;100.00;100307.59;5045398;28;46053;-77
2022/10/23 09:23:36;;;;;;;;;5.00;5.00;;;;;20.02;100.00;100306.59;5040528;28;45629;-77
2022/10/23 09:26:11;;;;;;;;;5.67;4.00;;;;;20.04;100.00;100290.47;5048615;28;45567;-76
2022/10/23 09:28:55;;;;;;;;;4.00;4.00;;;;;20.08;100.00;100295.69;5051449;28;45530;-77
2022/10/23 09:31:20;;;;;;;;;3.33;3.33;;;;;20.11;100.00;100282.16;5036484;28;45289;-75
2022/10/23 09:33:57;;;;;;;;;4.00;3.00;;;;;20.14;100.00;100286.53;5057229;28;47092;-75
2022/10/23 09:36:24;;;;;;;;;5.00;3.33;;;;;20.15;100.00;100283.78;5057604;28;45202;-76
2022/10/23 09:38:52;;;;;;;;;3.00;3.00;;;;;20.19;100.00;100294.38;5055785;28;45467;-77
2022/10/23 09:41:34;;;;;;;;;3.00;3.00;;;;;20.19;100.00;100281.88;5058497;28;45959;-79
2022/10/23 09:44:06;;;;;;;;;2.67;2.67;;;;;20.22;100.00;100279.06;5047667;28;45942;-77
2022/10/23 09:46:39;;;;;;;;;4.00;4.00;;;;;20.30;100.00;100276.13;5055353;28;47309;-80
2022/10/23 09:49:06;;;;;;;;;5.00;3.67;;;;;20.35;100.00;100268.78;5055668;28;45586;-80
2022/10/23 09:51:31;;;;;;;;;4.33;4.33;;;;;20.43;100.00;100272.00;5053405;28;47563;-80
2022/10/23 09:53:58;;;;;;;;;5.67;4.33;;;;;20.49;100.00;100279.84;5057362;28;45333;-79
2022/10/23 09:56:38;;;;;;;;;6.00;2.00;;;;;20.54;100.00;100275.19;5039560;28;45495;-79
2022/10/23 09:59:17;;;;;;;;;3.33;3.33;;;;;20.57;100.00;100272.41;5038240;28;45564;-79
2022/10/23 10:01:46;;;;;;;;;3.00;3.00;;;;;20.59;100.00;100261.59;5056578;28;46317;-79
2022/10/23 10:04:11;;;;;;;;;4.67;3.00;;;;;20.59;100.00;100264.28;5057728;28;45623;-79
2022/10/23 10:06:36;;;;;;;;;3.00;3.00;;;;;20.59;100.00;100261.59;5057614;28;55033;-79
2022/10/23 10:09:07;;;;;;;;;5.00;4.00;;;;;20.60;100.00;100257.97;5058077;28;45686;-79
2022/10/23 10:12:09;;;;;;;;;5.67;3.00;;;;;20.60;100.00;100261.53;5058190;28;47265;-79
2022/10/23 10:14:46;;;;;;;;;3.67;2.00;;;;;20.65;100.00;100256.00;5013636;28;45403;-80
2022/10/23 10:17:44;;;;;;;;;5.00;4.67;;;;;20.71;100.00;100245.00;5050669;28;45617;-79
2022/10/23 10:20:16;;;;;;;;;3.00;3.00;;;;;20.81;100.00;100237.47;5040437;28;45677;-80
2022/10/23 10:23:04;;;;;;;;;4.00;2.00;;;;;20.87;100.00;100240.75;5061949;28;46584;-79
2022/10/23 10:25:35;;;;;;;;;3.67;2.33;;;;;20.95;100.00;100234.22;5057972;28;45384;-79
2022/10/23 10:28:21;;;;;;;;;3.00;2.33;;;;;21.01;100.00;100237.53;5058592;28;45285;-80
2022/10/23 10:31:21;;;;;;;;;3.00;1.67;;;;;21.10;100.00;100253.25;5057752;28;45474;-79
2022/10/23 10:34:05;;;;;;;;;2.33;2.33;;;;;21.21;100.00;100250.13;5057966;28;46623;-79
2022/10/23 10:36:39;;;;;;;;;3.00;3.00;;;;;21.28;100.00;100254.28;5039339;28;45376;-80
2022/10/23 10:39:14;;;;;;;;;3.00;3.00;;;;;21.31;100.00;100246.16;5058322;28;45430;-79
2022/10/23 10:41:45;;;;;;;;;2.00;2.00;;;;;21.34;100.00;100254.06;5058384;28;45420;-79
2022/10/23 10:44:38;;;;;;;;;3.00;3.00;;;;;21.42;100.00;100251.94;5057763;28;47579;-79
2022/10/23 10:47:42;;;;;;;;;3.67;2.00;;;;;21.52;100.00;100243.44;5057471;28;45376;-80
2022/10/23 10:50:17;;;;;;;;;4.67;3.00;;;;;21.59;100.00;100239.56;4924953;28;45464;-80
2022/10/23 10:53:08;;;;;;;;;3.00;3.00;;;;;21.70;100.00;100237.28;4937546;28;45487;-79
2022/10/23 10:55:40;;;;;;;;;2.00;2.00;;;;;21.80;100.00;100221.63;5007318;28;47632;-79
2022/10/23 10:58:20;;;;;;;;;3.33;2.00;;;;;21.90;100.00;100221.13;5038469;28;45605;-80
2022/10/23 11:00:50;;;;;;;;;4.33;3.00;;;;;21.94;100.00;100225.44;5057931;28;45372;-79
2022/10/23 11:03:35;;;;;;;;;5.33;4.00;;;;;22.02;100.00;100221.53;5057749;28;45518;-80
2022/10/23 11:06:02;;;;;;;;;3.00;3.00;;;;;22.11;100.00;100219.31;5057159;28;46709;-79
2022/10/23 11:08:36;;;;;;;;;2.67;2.67;;;;;22.25;100.00;100212.41;5057507;28;45316;-79
2022/10/23 11:11:15;;;;;;;;;3.00;3.00;;;;;22.37;100.00;100217.19;5041221;28;45191;-79
2022/10/23 11:13:42;;;;;;;;;3.00;3.00;;;;;22.52;100.00;100204.84;5057661;28;45407;-79
2022/10/23 11:16:20;;;;;;;;;3.00;3.00;;;;;22.63;100.00;100197.09;5038982;28;47271;-79
2022/10/23 11:19:14;;;;;;;;;2.33;2.00;;;;;22.71;100.00;100200.31;5038964;28;45438;-80
2022/10/23 11:21:41;;;;;;;;;2.33;2.33;;;;;22.78;100.00;100200.88;5016309;28;45457;-80
2022/10/23 11:24:19;;;;;;;;;4.33;3.33;;;;;22.74;100.00;100190.28;5039665;28;45581;-80
2022/10/23 11:26:57;;;;;;;;;2.33;2.33;;;;;22.67;100.00;100182.56;5033682;28;47601;-80
2022/10/23 11:29:41;;;;;;;;;3.33;3.33;;;;;22.57;100.00;100176.75;5038654;28;45355;-80